createdAt,value
2023-02-01T00:00:31.049Z,100.00
2023-02-01T00:02:57.765Z,100.00
2023-02-01T00:05:24.431Z,100.00
2023-02-01T00:07:51.190Z,100.00
2023-02-01T00:10:18.683Z,100.00
2023-02-01T00:12:45.520Z,100.00
2023-02-01T00:15:12.548Z,100.00
2023-02-01T00:17:39.340Z,100.00
2023-02-01T00:20:06.634Z,100.00
2023-02-01T00:22:33.412Z,100.00
2023-02-01T00:25:00.133Z,100.00
2023-02-01T00:27:26.946Z,100.00
2023-02-01T00:29:56.133Z,100.00
2023-02-01T00:32:23.084Z,100.00
2023-02-01T00:34:49.839Z,100.00
2023-02-01T00:37:16.604Z,100.00
2023-02-01T00:39:43.255Z,100.00
2023-02-01T00:42:10.880Z,100.00
2023-02-01T00:44:37.703Z,100.00
2023-02-01T00:47:04.439Z,100.00
2023-02-01T00:49:31.151Z,100.00
2023-02-01T00:51:58.030Z,100.00
2023-02-01T00:54:25.001Z,100.00
2023-02-01T00:56:51.781Z,100.00
2023-02-01T00:59:18.463Z,100.00
2023-02-01T01:01:45.264Z,100.00
2023-02-01T01:04:12.081Z,100.00
2023-02-01T01:06:38.839Z,100.00
2023-02-01T01:09:08.030Z,100.00
2023-02-01T01:11:38.844Z,100.00
2023-02-01T01:14:07.057Z,100.00
2023-02-01T01:16:34.711Z,100.00
2023-02-01T01:19:02.227Z,100.00
2023-02-01T01:21:29.665Z,100.00
2023-02-01T01:23:56.770Z,100.00
2023-02-01T01:26:26.500Z,100.00
2023-02-01T01:28:55.882Z,100.00
2023-02-01T01:31:22.969Z,100.00
2023-02-01T01:33:54.537Z,100.00
2023-02-01T01:36:22.095Z,100.00
2023-02-01T01:38:49.023Z,100.00
2023-02-01T01:41:19.388Z,100.00
2023-02-01T01:43:57.209Z,100.00
2023-02-01T01:46:27.077Z,100.00
2023-02-01T01:49:16.834Z,100.00
2023-02-01T01:51:48.371Z,100.00
2023-02-01T01:54:19.319Z,100.00
2023-02-01T01:56:56.416Z,100.00
2023-02-01T01:59:25.022Z,100.00
2023-02-01T02:01:53.151Z,100.00
2023-02-01T02:04:20.825Z,100.00
2023-02-01T02:07:08.968Z,100.00
2023-02-01T02:09:35.890Z,100.00
2023-02-01T02:12:02.621Z,100.00
2023-02-01T02:14:30.725Z,100.00
2023-02-01T02:17:27.808Z,100.00
2023-02-01T02:20:25.641Z,100.00
2023-02-01T02:23:30.366Z,100.00
2023-02-01T02:26:00.015Z,100.00
2023-02-01T02:28:54.283Z,100.00
2023-02-01T02:31:33.909Z,100.00
2023-02-01T02:34:24.002Z,100.00
2023-02-01T02:37:04.262Z,100.00
2023-02-01T02:39:44.740Z,100.00
2023-02-01T02:42:36.851Z,100.00
2023-02-01T02:45:50.647Z,100.00
2023-02-01T02:48:25.956Z,100.00
2023-02-01T02:51:20.559Z,100.00
2023-02-01T02:54:13.735Z,100.00
2023-02-01T02:57:00.041Z,100.00
2023-02-01T02:59:47.660Z,100.00
2023-02-01T03:02:34.195Z,100.00
2023-02-01T03:05:01.125Z,100.00
2023-02-01T03:07:49.666Z,100.00
2023-02-01T03:10:39.361Z,100.00
2023-02-01T03:13:25.118Z,100.00
2023-02-01T03:15:59.647Z,100.00
2023-02-01T03:18:38.282Z,100.00
2023-02-01T03:21:11.564Z,100.00
2023-02-01T03:23:41.811Z,100.00
2023-02-01T03:26:12.682Z,100.00
2023-02-01T03:28:46.691Z,100.00
2023-02-01T03:31:15.696Z,100.00
2023-02-01T03:33:42.975Z,100.00
2023-02-01T03:36:20.221Z,100.00
2023-02-01T03:38:59.405Z,100.00
2023-02-01T03:41:43.014Z,100.00
2023-02-01T03:44:20.253Z,100.00
2023-02-01T03:47:05.313Z,100.00
2023-02-01T03:49:42.312Z,100.00
2023-02-01T03:52:14.595Z,100.00
2023-02-01T03:54:42.604Z,100.00
2023-02-01T03:57:14.330Z,100.00
2023-02-01T03:59:45.133Z,100.00
2023-02-01T04:02:11.994Z,100.00
2023-02-01T04:04:38.755Z,100.00
2023-02-01T04:07:05.600Z,100.00
2023-02-01T04:09:32.464Z,100.00
2023-02-01T04:11:59.163Z,100.00
2023-02-01T04:14:25.909Z,100.00
2023-02-01T04:16:52.708Z,100.00
2023-02-01T04:19:19.535Z,100.00
2023-02-01T04:21:46.300Z,100.00
2023-02-01T04:24:13.006Z,100.00
2023-02-01T04:26:39.808Z,100.00
2023-02-01T04:29:06.580Z,100.00
2023-02-01T04:31:33.445Z,100.00
2023-02-01T04:34:00.435Z,100.00
2023-02-01T04:36:27.216Z,100.00
2023-02-01T04:38:53.898Z,100.00
2023-02-01T04:41:21.671Z,100.00
2023-02-01T04:43:49.728Z,100.00
2023-02-01T04:46:16.692Z,100.00
2023-02-01T04:48:43.550Z,100.00
2023-02-01T04:51:11.337Z,100.00
2023-02-01T04:53:38.013Z,100.00
2023-02-01T04:56:05.124Z,100.00
2023-02-01T04:58:31.791Z,100.00
2023-02-01T05:00:58.665Z,100.00
2023-02-01T05:03:25.408Z,100.00
2023-02-01T05:05:54.469Z,100.00
2023-02-01T05:08:23.289Z,100.00
2023-02-01T05:10:50.193Z,100.00
2023-02-01T05:13:35.520Z,100.00
2023-02-01T05:16:02.808Z,100.00
2023-02-01T05:18:29.567Z,100.00
2023-02-01T05:20:56.589Z,100.00
2023-02-01T05:23:23.372Z,100.00
2023-02-01T05:25:50.121Z,100.00
2023-02-01T05:28:16.840Z,100.00
2023-02-01T05:30:43.842Z,100.00
2023-02-01T05:33:10.627Z,100.00
2023-02-01T05:35:37.280Z,100.00
2023-02-01T05:38:03.933Z,100.00
2023-02-01T05:40:30.620Z,100.00
2023-02-01T05:42:57.377Z,100.00
2023-02-01T05:45:24.184Z,100.00
2023-02-01T05:47:50.974Z,100.00
2023-02-01T05:50:17.871Z,100.00
2023-02-01T05:52:44.626Z,100.00
2023-02-01T05:55:11.606Z,100.00
2023-02-01T05:57:38.274Z,100.00
2023-02-01T06:00:05.501Z,100.00
2023-02-01T06:02:32.279Z,100.00
2023-02-01T06:04:58.971Z,100.00
2023-02-01T06:07:27.138Z,100.00
2023-02-01T06:09:54.757Z,100.00
2023-02-01T06:12:21.564Z,100.00
2023-02-01T06:14:48.299Z,100.00
2023-02-01T06:17:15.002Z,100.00
2023-02-01T06:19:41.934Z,100.00
2023-02-01T06:22:08.621Z,100.00
2023-02-01T06:24:35.472Z,100.00
2023-02-01T06:27:02.194Z,100.00
2023-02-01T06:29:28.840Z,100.00
2023-02-01T06:31:55.714Z,100.00
2023-02-01T06:34:23.906Z,100.00
2023-02-01T06:36:50.853Z,100.00
2023-02-01T06:39:17.593Z,100.00
2023-02-01T06:41:48.405Z,100.00
2023-02-01T06:44:15.718Z,100.00
2023-02-01T06:46:42.528Z,100.00
2023-02-01T06:49:09.609Z,100.00
2023-02-01T06:51:36.614Z,100.00
2023-02-01T06:54:03.373Z,100.00
2023-02-01T06:56:32.141Z,100.00
2023-02-01T06:58:58.924Z,100.00
2023-02-01T07:01:25.671Z,100.00
2023-02-01T07:03:52.380Z,100.00
2023-02-01T07:06:19.391Z,100.00
2023-02-01T07:08:46.298Z,100.00
2023-02-01T07:11:14.923Z,100.00
2023-02-01T07:13:41.764Z,100.00
2023-02-01T07:16:12.864Z,100.00
2023-02-01T07:18:39.694Z,100.00
2023-02-01T07:21:06.997Z,100.00
2023-02-01T07:23:33.822Z,100.00
2023-02-01T07:26:04.200Z,100.00
2023-02-01T07:28:33.392Z,100.00
2023-02-01T07:31:08.323Z,100.00
2023-02-01T07:33:35.445Z,100.00
2023-02-01T07:36:05.207Z,100.00
2023-02-01T07:38:32.001Z,100.00
2023-02-01T07:41:04.419Z,100.00
2023-02-01T07:43:31.867Z,100.00
2023-02-01T07:45:58.928Z,100.00
2023-02-01T07:48:26.931Z,100.00
2023-02-01T07:51:01.611Z,100.00
2023-02-01T07:53:30.304Z,100.00
2023-02-01T07:55:57.248Z,100.00
2023-02-01T07:58:25.104Z,100.00
2023-02-01T08:01:10.310Z,100.00
2023-02-01T08:03:37.449Z,100.00
2023-02-01T08:06:05.359Z,100.00
2023-02-01T08:08:32.046Z,100.00
2023-02-01T08:10:59.868Z,100.00
2023-02-01T08:13:26.720Z,100.00
2023-02-01T08:15:53.657Z,100.00
2023-02-01T08:18:21.753Z,100.00
2023-02-01T08:20:48.696Z,100.00
2023-02-01T08:23:15.598Z,100.00
2023-02-01T08:25:42.320Z,100.00
2023-02-01T08:28:09.097Z,100.00
2023-02-01T08:30:39.225Z,100.00
2023-02-01T08:33:07.739Z,100.00
2023-02-01T08:35:43.746Z,100.00
2023-02-01T08:38:11.683Z,100.00
2023-02-01T08:40:38.385Z,100.00
2023-02-01T08:43:05.376Z,100.00
2023-02-01T08:45:32.996Z,100.00
2023-02-01T08:47:59.981Z,100.00
2023-02-01T08:50:27.165Z,100.00
2023-02-01T08:52:54.516Z,100.00
2023-02-01T08:55:21.727Z,100.00
2023-02-01T08:57:48.772Z,100.00
2023-02-01T09:00:17.708Z,100.00
2023-02-01T09:02:44.927Z,100.00
2023-02-01T09:05:12.437Z,100.00
2023-02-01T09:07:39.690Z,100.00
2023-02-01T09:10:07.296Z,100.00
2023-02-01T09:12:35.306Z,100.00
2023-02-01T09:15:02.428Z,100.00
2023-02-01T09:17:30.243Z,99.12
2023-02-01T09:19:56.976Z,97.65
2023-02-01T09:22:24.043Z,97.35
2023-02-01T09:24:50.998Z,97.22
2023-02-01T09:27:17.673Z,97.60
2023-02-01T09:29:44.483Z,95.29
2023-02-01T09:32:11.640Z,94.12
2023-02-01T09:34:38.488Z,94.37
2023-02-01T09:37:05.171Z,95.50
2023-02-01T09:39:32.041Z,94.95
2023-02-01T09:42:21.658Z,93.19
2023-02-01T09:45:14.678Z,93.45
2023-02-01T09:47:48.584Z,93.93
2023-02-01T09:50:23.665Z,95.13
2023-02-01T09:52:59.285Z,94.09
2023-02-01T09:55:48.085Z,91.23
2023-02-01T09:58:25.882Z,91.08
2023-02-01T10:00:58.878Z,88.61
2023-02-01T10:03:30.368Z,88.55
2023-02-01T10:06:00.103Z,87.64
2023-02-01T10:08:56.122Z,88.32
2023-02-01T10:11:49.129Z,88.00
2023-02-01T10:14:26.506Z,90.74
2023-02-01T10:17:15.115Z,86.76
2023-02-01T10:19:53.895Z,88.36
2023-02-01T10:22:55.752Z,87.21
2023-02-01T10:25:33.990Z,86.43
2023-02-01T10:28:02.484Z,87.11
2023-02-01T10:30:38.325Z,85.74
2023-02-01T10:33:19.138Z,86.78
2023-02-01T10:35:47.354Z,83.65
2023-02-01T10:38:29.963Z,87.01
2023-02-01T10:41:03.964Z,84.38
2023-02-01T10:43:31.877Z,84.91
2023-02-01T10:45:58.623Z,83.49
2023-02-01T10:48:25.475Z,84.12
2023-02-01T10:51:00.376Z,86.50
2023-02-01T10:53:40.621Z,84.85
2023-02-01T10:56:09.447Z,83.86
2023-02-01T10:58:43.565Z,83.52
2023-02-01T11:01:17.756Z,85.44
2023-02-01T11:04:01.610Z,86.07
2023-02-01T11:06:33.938Z,80.76
2023-02-01T11:09:11.366Z,78.80
2023-02-01T11:11:55.298Z,77.53
2023-02-01T11:14:25.100Z,75.64
2023-02-01T11:17:13.254Z,77.81
2023-02-01T11:19:41.118Z,80.15
2023-02-01T11:22:07.895Z,79.81
2023-02-01T11:24:39.150Z,76.75
2023-02-01T11:27:16.026Z,78.58
2023-02-01T11:29:52.375Z,72.96
2023-02-01T11:32:21.830Z,77.52
2023-02-01T11:34:52.829Z,73.58
2023-02-01T11:37:32.456Z,76.50
2023-02-01T11:40:01.424Z,78.28
2023-02-01T11:42:29.711Z,78.43
2023-02-01T11:45:20.139Z,78.98
2023-02-01T11:47:47.392Z,79.11
2023-02-01T11:50:30.946Z,79.63
2023-02-01T11:53:25.282Z,79.37
2023-02-01T11:56:19.769Z,78.36
2023-02-01T11:58:52.591Z,77.84
2023-02-01T12:01:44.223Z,77.50
2023-02-01T12:04:34.594Z,77.75
2023-02-01T12:07:14.850Z,78.16
2023-02-01T12:10:05.293Z,80.34
2023-02-01T12:12:42.557Z,81.16
2023-02-01T12:15:34.422Z,85.09
2023-02-01T12:18:45.825Z,85.75
2023-02-01T12:21:43.483Z,85.44
2023-02-01T12:24:32.689Z,85.05
2023-02-01T12:27:28.663Z,85.45
2023-02-01T12:30:10.053Z,85.46
2023-02-01T12:32:49.595Z,87.21
2023-02-01T12:35:28.575Z,88.20
2023-02-01T12:38:21.749Z,89.43
2023-02-01T12:41:41.884Z,92.08
2023-02-01T12:44:27.253Z,93.61
2023-02-01T12:46:56.589Z,95.02
2023-02-01T12:49:53.824Z,93.59
2023-02-01T12:52:44.371Z,89.04
2023-02-01T12:55:21.430Z,88.33
2023-02-01T12:57:54.718Z,86.93
2023-02-01T13:00:37.113Z,87.85
2023-02-01T13:03:22.869Z,87.82
2023-02-01T13:05:56.164Z,87.50
2023-02-01T13:08:36.816Z,87.52
2023-02-01T13:11:38.567Z,86.59
2023-02-01T13:14:26.976Z,86.18
2023-02-01T13:17:01.872Z,86.33
2023-02-01T13:19:38.022Z,86.61
2023-02-01T13:22:12.870Z,86.58
2023-02-01T13:24:46.864Z,87.15
2023-02-01T13:27:15.355Z,87.79
2023-02-01T13:30:12.861Z,88.63
2023-02-01T13:33:54.692Z,90.13
2023-02-01T13:36:42.656Z,93.77
2023-02-01T13:39:29.127Z,94.93
2023-02-01T13:42:00.688Z,95.12
2023-02-01T13:44:46.011Z,94.84
2023-02-01T13:47:34.679Z,94.54
2023-02-01T13:50:13.106Z,95.79
2023-02-01T13:52:52.886Z,94.91
2023-02-01T13:55:28.131Z,94.73
2023-02-01T13:58:12.214Z,95.22
2023-02-01T14:00:41.053Z,93.79
2023-02-01T14:03:13.027Z,93.31
2023-02-01T14:05:39.869Z,94.40
2023-02-01T14:08:10.623Z,94.11
2023-02-01T14:10:51.470Z,94.08
2023-02-01T14:13:40.503Z,93.14
2023-02-01T14:16:07.350Z,91.39
2023-02-01T14:18:37.380Z,91.18
2023-02-01T14:21:25.719Z,91.36
2023-02-01T14:23:55.355Z,90.73
2023-02-01T14:26:26.870Z,90.45
2023-02-01T14:29:24.400Z,90.16
2023-02-01T14:32:13.688Z,89.90
2023-02-01T14:34:53.640Z,89.15
2023-02-01T14:37:25.172Z,89.20
2023-02-01T14:40:20.062Z,87.37
2023-02-01T14:42:49.792Z,88.77
2023-02-01T14:45:19.846Z,86.71
2023-02-01T14:47:48.620Z,85.62
2023-02-01T14:50:27.491Z,85.18
2023-02-01T14:53:09.630Z,85.15
2023-02-01T14:55:41.002Z,84.98
2023-02-01T14:58:19.781Z,84.81
2023-02-01T15:00:56.994Z,84.73
2023-02-01T15:03:24.090Z,84.09
2023-02-01T15:05:58.900Z,82.95
2023-02-01T15:08:31.011Z,83.68
2023-02-01T15:11:02.023Z,82.73
2023-02-01T15:13:29.710Z,82.52
2023-02-01T15:16:10.990Z,83.30
2023-02-01T15:18:38.146Z,83.70
2023-02-01T15:21:27.463Z,82.97
2023-02-01T15:24:12.024Z,82.27
2023-02-01T15:26:39.036Z,82.35
2023-02-01T15:29:05.993Z,82.60
2023-02-01T15:31:40.043Z,82.56
2023-02-01T15:34:06.998Z,82.93
2023-02-01T15:36:34.720Z,83.01
2023-02-01T15:39:30.686Z,83.43
2023-02-01T15:42:02.863Z,83.31
2023-02-01T15:44:43.693Z,83.33
2023-02-01T15:47:26.796Z,83.44
2023-02-01T15:49:59.699Z,83.58
2023-02-01T15:52:40.029Z,83.61
2023-02-01T15:55:18.349Z,83.71
2023-02-01T15:57:45.611Z,83.07
2023-02-01T16:00:29.396Z,82.76
2023-02-01T16:03:01.906Z,82.53
2023-02-01T16:05:39.297Z,82.51
2023-02-01T16:08:13.035Z,82.69
2023-02-01T16:10:43.039Z,83.26
2023-02-01T16:13:10.541Z,83.13
2023-02-01T16:15:37.559Z,82.77
2023-02-01T16:18:05.115Z,82.54
2023-02-01T16:20:31.941Z,82.80
2023-02-01T16:22:58.840Z,82.43
2023-02-01T16:25:26.086Z,82.60
2023-02-01T16:27:53.062Z,82.47
2023-02-01T16:30:25.140Z,82.33
2023-02-01T16:33:00.313Z,82.08
2023-02-01T16:35:36.417Z,82.24
2023-02-01T16:38:09.608Z,82.34
2023-02-01T16:40:36.410Z,83.72
2023-02-01T16:43:04.488Z,82.12
2023-02-01T16:45:31.259Z,82.08
2023-02-01T16:47:58.382Z,82.01
2023-02-01T16:50:26.629Z,81.45
2023-02-01T16:52:54.338Z,81.36
2023-02-01T16:55:23.578Z,81.68
2023-02-01T16:57:50.991Z,81.61
2023-02-01T17:00:24.573Z,82.15
2023-02-01T17:02:53.409Z,81.69
2023-02-01T17:05:20.393Z,82.23
2023-02-01T17:07:47.468Z,82.30
2023-02-01T17:10:34.158Z,83.49
2023-02-01T17:13:02.014Z,82.36
2023-02-01T17:15:34.817Z,82.67
2023-02-01T17:18:02.758Z,82.81
2023-02-01T17:20:33.019Z,82.56
2023-02-01T17:23:00.108Z,82.32
2023-02-01T17:25:29.931Z,82.30
2023-02-01T17:27:56.642Z,82.62
2023-02-01T17:30:23.449Z,83.25
2023-02-01T17:32:50.454Z,84.08
2023-02-01T17:35:22.353Z,84.50
2023-02-01T17:37:50.676Z,84.60
2023-02-01T17:40:17.977Z,84.61
2023-02-01T17:42:44.792Z,85.08
2023-02-01T17:45:33.269Z,85.02
2023-02-01T17:48:00.151Z,84.87
2023-02-01T17:50:30.607Z,85.44
2023-02-01T17:52:57.610Z,86.12
2023-02-01T17:55:27.054Z,86.10
2023-02-01T17:57:54.074Z,86.38
2023-02-01T18:00:22.000Z,86.43
2023-02-01T18:02:48.853Z,86.35
2023-02-01T18:05:27.286Z,86.42
2023-02-01T18:07:54.124Z,86.20
2023-02-01T18:10:20.978Z,85.68
2023-02-01T18:12:47.790Z,85.38
2023-02-01T18:15:23.323Z,85.23
2023-02-01T18:17:50.523Z,85.58
2023-02-01T18:20:20.294Z,84.60
2023-02-01T18:22:50.622Z,84.45
2023-02-01T18:25:21.236Z,83.72
2023-02-01T18:27:49.312Z,82.60
2023-02-01T18:30:16.690Z,82.07
2023-02-01T18:32:44.410Z,81.95
2023-02-01T18:35:21.499Z,81.93
2023-02-01T18:37:50.398Z,81.56
2023-02-01T18:40:23.196Z,81.59
2023-02-01T18:42:50.218Z,81.13
2023-02-01T18:45:49.470Z,81.10
2023-02-01T18:48:19.384Z,81.13
2023-02-01T18:50:46.325Z,81.06
2023-02-01T18:53:21.127Z,80.49
2023-02-01T18:55:48.403Z,80.47
2023-02-01T18:58:16.840Z,80.20
2023-02-01T19:00:45.387Z,80.29
2023-02-01T19:03:13.670Z,80.33
2023-02-01T19:05:40.996Z,80.33
2023-02-01T19:08:08.715Z,80.45
2023-02-01T19:10:38.561Z,80.57
2023-02-01T19:13:05.512Z,80.92
2023-02-01T19:15:34.840Z,81.10
2023-02-01T19:18:01.696Z,81.50
2023-02-01T19:20:28.443Z,81.51
2023-02-01T19:22:55.175Z,81.90
2023-02-01T19:25:25.247Z,80.98
2023-02-01T19:27:53.074Z,81.30
2023-02-01T19:30:21.086Z,80.83
2023-02-01T19:32:48.524Z,81.39
2023-02-01T19:35:19.426Z,81.01
2023-02-01T19:37:48.115Z,81.27
2023-02-01T19:40:18.119Z,81.08
2023-02-01T19:42:45.400Z,81.05
2023-02-01T19:45:13.046Z,81.18
2023-02-01T19:47:39.833Z,80.96
2023-02-01T19:50:07.906Z,82.15
2023-02-01T19:52:35.769Z,81.64
2023-02-01T19:55:03.759Z,82.10
2023-02-01T19:57:31.279Z,82.17
2023-02-01T19:59:58.011Z,82.28
2023-02-01T20:02:25.729Z,82.60
2023-02-01T20:04:52.505Z,82.16
2023-02-01T20:07:19.181Z,82.42
2023-02-01T20:09:45.970Z,82.71
2023-02-01T20:12:12.797Z,82.81
2023-02-01T20:14:40.042Z,83.07
2023-02-01T20:17:07.718Z,82.92
2023-02-01T20:19:34.613Z,82.82
2023-02-01T20:22:01.516Z,83.22
2023-02-01T20:24:28.345Z,83.38
2023-02-01T20:26:56.105Z,83.31
2023-02-01T20:29:23.104Z,83.55
2023-02-01T20:31:50.016Z,83.36
2023-02-01T20:34:17.211Z,83.81
2023-02-01T20:36:44.261Z,83.77
2023-02-01T20:39:11.046Z,83.71
2023-02-01T20:41:38.481Z,83.53
2023-02-01T20:44:05.448Z,83.44
2023-02-01T20:46:32.463Z,83.35
2023-02-01T20:48:59.302Z,83.66
2023-02-01T20:51:26.023Z,83.78
2023-02-01T20:53:54.839Z,83.99
2023-02-01T20:56:22.365Z,83.96
2023-02-01T20:58:49.674Z,84.09
2023-02-01T21:01:16.638Z,84.14
2023-02-01T21:03:43.644Z,84.18
2023-02-01T21:06:12.604Z,84.23
2023-02-01T21:08:41.408Z,84.24
2023-02-01T21:11:12.416Z,84.46
2023-02-01T21:13:50.626Z,84.71
2023-02-01T21:16:21.564Z,84.78
2023-02-01T21:18:52.392Z,85.17
2023-02-01T21:21:19.698Z,85.09
2023-02-01T21:23:47.658Z,85.15
2023-02-01T21:26:17.625Z,85.55
2023-02-01T21:28:45.179Z,85.49
2023-02-01T21:31:13.921Z,85.38
2023-02-01T21:33:41.080Z,85.53
2023-02-01T21:36:10.013Z,85.56
2023-02-01T21:38:37.516Z,85.32
2023-02-01T21:41:23.123Z,85.38
2023-02-01T21:43:49.932Z,85.25
2023-02-01T21:46:18.276Z,85.45
2023-02-01T21:49:04.523Z,85.48
2023-02-01T21:51:32.072Z,85.93
2023-02-01T21:53:58.719Z,87.21
2023-02-01T21:56:25.873Z,89.19
2023-02-01T21:58:52.977Z,90.90
2023-02-01T22:01:19.667Z,92.75
2023-02-01T22:03:46.894Z,95.61
2023-02-01T22:06:37.993Z,98.27
2023-02-01T22:09:05.796Z,99.16
2023-02-01T22:11:33.137Z,100.00
2023-02-01T22:14:00.288Z,100.00
2023-02-01T22:16:27.186Z,100.00
2023-02-01T22:18:54.276Z,100.00
2023-02-01T22:21:22.682Z,100.00
2023-02-01T22:23:54.580Z,100.00
2023-02-01T22:26:22.542Z,100.00
2023-02-01T22:28:52.490Z,99.44
2023-02-01T22:31:20.218Z,98.20
2023-02-01T22:33:49.088Z,97.61
2023-02-01T22:36:18.042Z,97.32
2023-02-01T22:38:46.237Z,96.24
2023-02-01T22:41:13.131Z,96.00
2023-02-01T22:43:40.398Z,95.50
2023-02-01T22:46:27.900Z,95.18
2023-02-01T22:48:54.579Z,96.89
2023-02-01T22:51:23.967Z,98.68
2023-02-01T22:53:56.929Z,100.00
2023-02-01T22:56:26.330Z,100.00
2023-02-01T22:58:55.345Z,100.00
2023-02-01T23:01:22.141Z,100.00
2023-02-01T23:03:48.829Z,100.00
2023-02-01T23:06:18.303Z,100.00
2023-02-01T23:08:46.327Z,100.00
2023-02-01T23:11:13.833Z,100.00
2023-02-01T23:13:40.823Z,100.00
2023-02-01T23:16:12.019Z,100.00
2023-02-01T23:18:40.229Z,100.00
2023-02-01T23:21:18.890Z,100.00
2023-02-01T23:23:51.211Z,100.00
2023-02-01T23:26:18.628Z,100.00
2023-02-01T23:28:45.504Z,100.00
2023-02-01T23:31:14.107Z,100.00
2023-02-01T23:33:41.491Z,100.00
2023-02-01T23:36:15.792Z,100.00
2023-02-01T23:38:46.661Z,100.00
2023-02-01T23:41:15.417Z,100.00
2023-02-01T23:43:57.835Z,100.00
2023-02-01T23:46:34.557Z,99.76
2023-02-01T23:49:02.857Z,99.93
2023-02-01T23:51:30.354Z,100.00
2023-02-01T23:53:57.775Z,99.75
2023-02-01T23:56:33.495Z,99.11
2023-02-01T23:59:02.471Z,99.09
